createdAt,value
2022-10-05T00:00:47.432Z,98.50
2022-10-05T00:03:15.086Z,97.22
2022-10-05T00:05:45.687Z,93.96
2022-10-05T00:08:15.121Z,95.52
2022-10-05T00:10:43.335Z,95.31
2022-10-05T00:13:17.432Z,95.40
2022-10-05T00:15:45.178Z,95.05
2022-10-05T00:18:18.179Z,95.73
2022-10-05T00:20:47.358Z,96.37
2022-10-05T00:23:19.379Z,96.12
2022-10-05T00:25:47.233Z,96.40
2022-10-05T00:28:30.600Z,98.25
2022-10-05T00:30:59.876Z,97.01
2022-10-05T00:33:28.030Z,97.34
2022-10-05T00:35:55.527Z,97.36
2022-10-05T00:38:23.771Z,96.49
2022-10-05T00:41:04.524Z,95.90
2022-10-05T00:43:53.804Z,95.54
2022-10-05T00:46:36.940Z,95.73
2022-10-05T00:49:47.608Z,96.47
2022-10-05T00:52:40.836Z,93.74
2022-10-05T00:55:33.291Z,95.97
2022-10-05T00:58:30.210Z,96.54
2022-10-05T01:01:09.635Z,97.13
2022-10-05T01:04:03.998Z,97.50
2022-10-05T01:06:42.142Z,97.09
2022-10-05T01:09:22.544Z,97.24
2022-10-05T01:11:58.773Z,97.38
2022-10-05T01:14:48.083Z,96.46
2022-10-05T01:17:26.284Z,96.24
2022-10-05T01:20:24.849Z,95.46
2022-10-05T01:23:11.277Z,98.20
2022-10-05T01:26:07.273Z,99.78
2022-10-05T01:28:44.282Z,100.00
2022-10-05T01:31:26.154Z,100.00
2022-10-05T01:34:32.505Z,100.00
2022-10-05T01:37:52.920Z,99.63
2022-10-05T01:40:35.439Z,98.25
2022-10-05T01:43:26.896Z,97.55
2022-10-05T01:46:11.858Z,97.02
2022-10-05T01:49:05.115Z,96.50
2022-10-05T01:51:48.847Z,98.31
2022-10-05T01:54:37.228Z,97.77
2022-10-05T01:57:40.308Z,97.29
2022-10-05T02:00:17.921Z,96.82
2022-10-05T02:03:08.195Z,95.62
2022-10-05T02:05:41.061Z,94.49
2022-10-05T02:08:17.743Z,93.55
2022-10-05T02:11:12.289Z,94.54
2022-10-05T02:13:50.327Z,94.36
2022-10-05T02:16:39.039Z,94.84
2022-10-05T02:19:30.505Z,96.26
2022-10-05T02:22:20.714Z,97.39
2022-10-05T02:24:56.936Z,97.13
2022-10-05T02:27:31.637Z,98.06
2022-10-05T02:30:12.813Z,97.40
2022-10-05T02:32:51.142Z,97.94
2022-10-05T02:35:21.248Z,98.01
2022-10-05T02:38:02.132Z,98.67
2022-10-05T02:40:52.022Z,97.58
2022-10-05T02:43:32.596Z,98.30
2022-10-05T02:46:03.485Z,99.13
2022-10-05T02:49:24.104Z,99.79
2022-10-05T02:52:06.927Z,98.38
2022-10-05T02:55:13.604Z,96.18
2022-10-05T02:58:11.055Z,97.42
2022-10-05T03:01:00.928Z,99.38
2022-10-05T03:03:35.438Z,98.82
2022-10-05T03:06:26.599Z,97.78
2022-10-05T03:08:57.912Z,97.66
2022-10-05T03:11:34.651Z,98.79
2022-10-05T03:14:25.284Z,97.71
2022-10-05T03:17:15.637Z,97.25
2022-10-05T03:20:11.725Z,98.09
2022-10-05T03:22:55.889Z,98.34
2022-10-05T03:25:42.368Z,98.19
2022-10-05T03:28:24.829Z,98.97
2022-10-05T03:31:46.420Z,97.12
2022-10-05T03:34:47.781Z,97.50
2022-10-05T03:37:21.370Z,97.39
2022-10-05T03:40:20.420Z,95.28
2022-10-05T03:43:09.781Z,96.76
2022-10-05T03:45:47.254Z,95.66
2022-10-05T03:48:22.649Z,96.87
2022-10-05T03:51:08.228Z,96.61
2022-10-05T03:53:44.991Z,96.95
2022-10-05T03:56:16.191Z,97.31
2022-10-05T03:58:55.825Z,96.12
2022-10-05T04:01:33.454Z,95.68
2022-10-05T04:04:04.340Z,96.00
2022-10-05T04:06:38.493Z,96.74
2022-10-05T04:09:29.453Z,96.46
2022-10-05T04:12:02.790Z,96.42
2022-10-05T04:14:46.825Z,95.64
2022-10-05T04:17:21.491Z,97.16
2022-10-05T04:20:02.948Z,95.85
2022-10-05T04:22:40.523Z,96.07
2022-10-05T04:25:17.951Z,96.53
2022-10-05T04:27:52.887Z,96.49
2022-10-05T04:30:22.257Z,96.16
2022-10-05T04:32:54.907Z,95.56
2022-10-05T04:35:41.572Z,95.18
2022-10-05T04:38:10.115Z,95.24
2022-10-05T04:41:06.463Z,94.73
2022-10-05T04:43:46.104Z,94.43
2022-10-05T04:46:17.821Z,94.26
2022-10-05T04:49:29.452Z,93.82
2022-10-05T04:52:26.834Z,94.41
2022-10-05T04:55:01.591Z,94.54
2022-10-05T04:57:47.867Z,94.54
2022-10-05T05:00:22.978Z,95.22
2022-10-05T05:03:21.357Z,94.63
2022-10-05T05:06:17.758Z,94.97
2022-10-05T05:09:06.070Z,94.79
2022-10-05T05:12:09.024Z,95.72
2022-10-05T05:14:52.339Z,94.95
2022-10-05T05:17:32.040Z,95.51
2022-10-05T05:20:06.916Z,95.68
2022-10-05T05:22:52.157Z,95.90
2022-10-05T05:25:35.230Z,95.96
2022-10-05T05:28:28.280Z,95.82
2022-10-05T05:31:16.012Z,95.73
2022-10-05T05:34:03.111Z,96.03
2022-10-05T05:36:45.275Z,96.14
2022-10-05T05:39:25.894Z,95.73
2022-10-05T05:41:57.616Z,95.21
2022-10-05T05:44:38.820Z,95.19
2022-10-05T05:47:20.818Z,96.85
2022-10-05T05:50:06.724Z,96.17
2022-10-05T05:52:43.014Z,96.23
2022-10-05T05:55:21.398Z,96.39
2022-10-05T05:58:49.692Z,96.27
2022-10-05T06:01:36.941Z,95.96
2022-10-05T06:04:15.424Z,95.77
2022-10-05T06:06:48.776Z,95.49
2022-10-05T06:09:25.934Z,95.74
2022-10-05T06:12:03.452Z,96.26
2022-10-05T06:14:44.333Z,95.89
2022-10-05T06:17:20.798Z,95.65
2022-10-05T06:19:54.982Z,95.91
2022-10-05T06:22:29.708Z,95.85
2022-10-05T06:25:17.864Z,95.85
2022-10-05T06:28:11.482Z,95.59
2022-10-05T06:31:03.832Z,95.29
2022-10-05T06:33:46.635Z,95.44
2022-10-05T06:36:46.681Z,95.14
2022-10-05T06:39:36.704Z,94.69
2022-10-05T06:42:41.515Z,93.96
2022-10-05T06:45:34.318Z,94.19
2022-10-05T06:48:13.696Z,93.03
2022-10-05T06:51:00.562Z,93.08
2022-10-05T06:53:43.684Z,92.66
2022-10-05T06:56:43.221Z,92.32
2022-10-05T06:59:29.681Z,91.55
2022-10-05T07:02:14.532Z,92.28
2022-10-05T07:05:27.695Z,91.44
2022-10-05T07:08:00.868Z,90.93
2022-10-05T07:10:31.783Z,90.78
2022-10-05T07:13:18.443Z,90.31
2022-10-05T07:16:13.422Z,89.74
2022-10-05T07:18:56.963Z,89.97
2022-10-05T07:21:41.712Z,88.87
2022-10-05T07:24:15.067Z,87.16
2022-10-05T07:26:46.932Z,87.27
2022-10-05T07:29:28.597Z,86.62
2022-10-05T07:32:11.452Z,86.35
2022-10-05T07:35:00.948Z,85.20
2022-10-05T07:37:50.479Z,84.29
2022-10-05T07:40:48.071Z,84.14
2022-10-05T07:43:57.584Z,83.62
2022-10-05T07:46:48.108Z,82.82
2022-10-05T07:49:41.587Z,82.94
2022-10-05T07:52:34.623Z,82.59
2022-10-05T07:55:15.924Z,82.38
2022-10-05T07:57:55.945Z,81.77
2022-10-05T08:00:27.442Z,79.55
2022-10-05T08:03:11.548Z,78.21
2022-10-05T08:05:44.244Z,79.06
2022-10-05T08:08:21.812Z,77.05
2022-10-05T08:11:02.062Z,77.38
2022-10-05T08:13:33.492Z,76.67
2022-10-05T08:16:06.412Z,77.15
2022-10-05T08:18:58.584Z,75.52
2022-10-05T08:21:39.069Z,75.71
2022-10-05T08:24:35.936Z,76.84
2022-10-05T08:27:03.248Z,77.11
2022-10-05T08:29:59.149Z,74.91
2022-10-05T08:32:34.919Z,75.97
2022-10-05T08:35:21.529Z,73.74
2022-10-05T08:37:49.355Z,73.43
2022-10-05T08:40:52.445Z,72.62
2022-10-05T08:43:57.048Z,73.25
2022-10-05T08:46:43.133Z,73.04
2022-10-05T08:49:34.240Z,73.48
2022-10-05T08:52:24.849Z,72.76
2022-10-05T08:55:10.165Z,74.78
2022-10-05T08:57:56.024Z,74.11
2022-10-05T09:00:25.345Z,72.07
2022-10-05T09:03:04.911Z,71.57
2022-10-05T09:05:58.386Z,71.36
2022-10-05T09:08:56.913Z,71.27
2022-10-05T09:11:40.582Z,69.83
2022-10-05T09:14:46.863Z,68.61
2022-10-05T09:17:37.207Z,67.73
2022-10-05T09:20:06.912Z,66.41
2022-10-05T09:22:43.678Z,67.73
2022-10-05T09:25:17.102Z,67.00
2022-10-05T09:28:04.808Z,65.93
2022-10-05T09:30:55.546Z,64.04
2022-10-05T09:33:26.097Z,63.65
2022-10-05T09:36:18.445Z,64.28
2022-10-05T09:38:54.932Z,64.12
2022-10-05T09:41:42.107Z,63.12
2022-10-05T09:44:18.848Z,63.10
2022-10-05T09:47:18.495Z,63.66
2022-10-05T09:50:08.372Z,61.18
2022-10-05T09:53:00.426Z,60.71
2022-10-05T09:55:49.348Z,58.37
2022-10-05T09:58:51.868Z,60.22
2022-10-05T10:01:40.038Z,59.39
2022-10-05T10:04:26.648Z,59.37
2022-10-05T10:07:25.774Z,56.60
2022-10-05T10:10:19.629Z,56.89
2022-10-05T10:13:08.078Z,56.74
2022-10-05T10:15:57.784Z,56.47
2022-10-05T10:18:49.567Z,57.93
2022-10-05T10:21:48.779Z,54.21
2022-10-05T10:24:33.391Z,54.78
2022-10-05T10:27:39.487Z,56.49
2022-10-05T10:30:22.471Z,56.06
2022-10-05T10:33:32.506Z,56.15
2022-10-05T10:36:20.746Z,56.14
2022-10-05T10:39:02.068Z,53.89
2022-10-05T10:42:16.265Z,57.55
2022-10-05T10:45:00.128Z,56.80
2022-10-05T10:48:02.499Z,55.31
2022-10-05T10:50:51.435Z,54.75
2022-10-05T10:53:37.505Z,56.22
2022-10-05T10:56:29.650Z,53.80
2022-10-05T10:59:02.952Z,52.42
2022-10-05T11:01:58.287Z,51.96
2022-10-05T11:04:57.512Z,52.95
2022-10-05T11:07:49.153Z,50.76
2022-10-05T11:10:45.752Z,52.14
2022-10-05T11:13:55.664Z,50.26
2022-10-05T11:16:23.011Z,51.78
2022-10-05T11:19:15.413Z,52.57
2022-10-05T11:22:33.128Z,51.63
2022-10-05T11:25:28.495Z,50.75
2022-10-05T11:28:30.620Z,49.77
2022-10-05T11:31:10.318Z,50.84
2022-10-05T11:33:56.391Z,51.21
2022-10-05T11:36:34.943Z,51.29
2022-10-05T11:39:22.047Z,51.86
2022-10-05T11:42:14.054Z,53.15
2022-10-05T11:45:14.019Z,54.21
2022-10-05T11:47:58.316Z,54.10
2022-10-05T11:50:39.353Z,51.87
2022-10-05T11:53:32.996Z,53.13
2022-10-05T11:56:36.046Z,51.19
2022-10-05T11:59:26.571Z,52.26
2022-10-05T12:02:31.303Z,52.21
2022-10-05T12:05:05.611Z,50.53
2022-10-05T12:07:47.156Z,51.67
2022-10-05T12:10:44.218Z,50.09
2022-10-05T12:13:35.113Z,50.14
2022-10-05T12:16:06.767Z,50.50
2022-10-05T12:18:39.155Z,50.85
2022-10-05T12:21:31.254Z,51.17
2022-10-05T12:24:00.384Z,50.37
2022-10-05T12:26:44.697Z,51.74
2022-10-05T12:29:24.203Z,51.14
2022-10-05T12:31:55.100Z,52.18
2022-10-05T12:34:36.296Z,51.53
2022-10-05T12:37:42.070Z,51.18
2022-10-05T12:40:36.067Z,51.95
2022-10-05T12:43:22.324Z,51.63
2022-10-05T12:46:07.777Z,51.44
2022-10-05T12:49:01.621Z,51.52
2022-10-05T12:51:36.838Z,51.30
2022-10-05T12:54:16.217Z,52.37
2022-10-05T12:56:55.699Z,53.06
2022-10-05T12:59:44.838Z,51.82
2022-10-05T13:02:21.424Z,52.79
2022-10-05T13:05:10.476Z,53.47
2022-10-05T13:07:42.826Z,53.20
2022-10-05T13:10:19.488Z,53.29
2022-10-05T13:13:11.292Z,52.61
2022-10-05T13:15:53.973Z,58.67
2022-10-05T13:18:44.282Z,54.87
2022-10-05T13:21:17.953Z,56.36
2022-10-05T13:23:57.700Z,53.87
2022-10-05T13:26:39.710Z,55.94
2022-10-05T13:29:27.844Z,55.25
2022-10-05T13:32:05.912Z,54.75
2022-10-05T13:34:50.169Z,54.48
2022-10-05T13:37:20.465Z,53.61
2022-10-05T13:39:57.315Z,54.45
2022-10-05T13:42:34.909Z,57.92
2022-10-05T13:45:10.138Z,54.43
2022-10-05T13:47:51.172Z,54.95
2022-10-05T13:50:31.086Z,54.82
2022-10-05T13:53:16.503Z,55.24
2022-10-05T13:55:53.582Z,58.60
2022-10-05T13:58:38.753Z,59.14
2022-10-05T14:01:17.148Z,57.51
2022-10-05T14:04:13.700Z,57.01
2022-10-05T14:06:41.175Z,58.60
2022-10-05T14:09:31.462Z,57.14
2022-10-05T14:12:05.024Z,58.66
2022-10-05T14:14:52.618Z,56.70
2022-10-05T14:17:29.174Z,61.63
